createdAt,value
2018-12-31T00:05:01.082Z,4.60
2018-12-31T00:07:42.838Z,4.50
2018-12-31T00:10:24.550Z,4.50
2018-12-31T00:13:06.689Z,4.40
2018-12-31T00:15:48.822Z,4.40
2018-12-31T00:18:31.028Z,4.30
2018-12-31T00:21:12.670Z,4.30
2018-12-31T00:23:54.631Z,4.20
2018-12-31T00:26:35.055Z,4.10
2018-12-31T00:29:24.403Z,4.00
2018-12-31T00:32:08.349Z,4.00
2018-12-31T00:34:50.577Z,4.00
2018-12-31T00:37:32.442Z,3.90
2018-12-31T00:40:18.739Z,3.80
2018-12-31T00:42:59.220Z,3.80
2018-12-31T00:45:41.381Z,3.70
2018-12-31T00:48:23.371Z,3.70
2018-12-31T00:51:05.455Z,3.60
2018-12-31T00:53:47.404Z,3.60
2018-12-31T00:56:29.345Z,3.50
2018-12-31T00:59:11.406Z,3.40
2018-12-31T01:01:53.126Z,3.30
2018-12-31T01:04:35.010Z,3.10
2018-12-31T01:07:16.860Z,3.10
2018-12-31T01:09:58.992Z,3.00
2018-12-31T01:12:41.350Z,3.00
2018-12-31T01:15:23.834Z,3.00
2018-12-31T01:18:05.698Z,3.00
2018-12-31T01:20:47.990Z,3.00
2018-12-31T01:23:30.158Z,3.10
2018-12-31T01:26:11.799Z,3.20
2018-12-31T01:28:54.071Z,3.40
2018-12-31T01:31:36.091Z,3.60
2018-12-31T01:34:18.251Z,3.70
2018-12-31T01:37:00.122Z,3.70
2018-12-31T01:39:42.201Z,3.70
2018-12-31T01:42:24.093Z,3.60
2018-12-31T01:45:05.954Z,3.70
2018-12-31T01:47:48.186Z,3.80
2018-12-31T01:50:29.879Z,3.80
2018-12-31T01:53:11.550Z,3.90
2018-12-31T01:55:53.307Z,4.00
2018-12-31T01:58:35.423Z,4.10
2018-12-31T02:01:17.459Z,4.20
2018-12-31T02:03:59.695Z,4.30
2018-12-31T02:06:41.790Z,4.30
2018-12-31T02:09:23.926Z,4.40
2018-12-31T02:12:06.275Z,4.40
2018-12-31T02:14:47.959Z,4.40
2018-12-31T02:17:18.330Z,4.40
2018-12-31T02:20:09.138Z,4.50
2018-12-31T02:22:52.658Z,4.60
2018-12-31T02:25:34.562Z,4.50
2018-12-31T02:28:16.623Z,4.40
2018-12-31T02:30:58.260Z,4.30
2018-12-31T02:33:39.967Z,4.30
2018-12-31T02:36:22.059Z,4.20
2018-12-31T02:39:04.704Z,4.30
2018-12-31T02:41:46.393Z,4.20
2018-12-31T02:44:28.032Z,4.00
2018-12-31T02:47:09.806Z,3.90
2018-12-31T02:49:52.338Z,4.20
2018-12-31T02:52:34.509Z,4.40
2018-12-31T02:55:16.475Z,4.40
2018-12-31T02:57:58.475Z,4.30
2018-12-31T03:00:40.679Z,4.20
2018-12-31T03:03:22.546Z,4.30
2018-12-31T03:06:05.050Z,4.40
2018-12-31T03:08:47.043Z,4.40
2018-12-31T03:11:29.168Z,4.30
2018-12-31T03:14:11.109Z,4.20
2018-12-31T03:16:53.470Z,4.40
2018-12-31T03:19:35.706Z,4.60
2018-12-31T03:22:17.879Z,5.20
2018-12-31T03:24:59.831Z,5.90
2018-12-31T03:27:41.678Z,6.10
2018-12-31T03:30:23.716Z,6.30
2018-12-31T03:33:05.461Z,6.50
2018-12-31T03:35:47.710Z,6.60
2018-12-31T03:38:29.508Z,6.60
2018-12-31T03:41:11.667Z,6.60
2018-12-31T03:43:53.558Z,6.50
2018-12-31T03:46:34.110Z,6.50
2018-12-31T03:52:05.664Z,6.50
2018-12-31T03:54:49.469Z,6.70
2018-12-31T03:57:31.534Z,6.70
2018-12-31T04:00:13.466Z,6.70
2018-12-31T04:02:56.154Z,6.70
2018-12-31T04:05:38.355Z,6.60
2018-12-31T04:08:20.330Z,6.50
2018-12-31T04:11:02.574Z,6.50
2018-12-31T04:13:32.930Z,6.50
2018-12-31T04:16:23.734Z,6.40
2018-12-31T04:19:07.532Z,6.40
2018-12-31T04:21:49.194Z,6.50
2018-12-31T04:24:31.848Z,6.60
2018-12-31T04:27:14.239Z,6.70
2018-12-31T04:29:56.359Z,6.70
2018-12-31T04:32:26.706Z,6.70
2018-12-31T04:35:16.123Z,6.80
2018-12-31T04:37:59.629Z,6.70
2018-12-31T04:40:41.308Z,6.80
2018-12-31T04:43:23.058Z,6.60
2018-12-31T04:46:04.833Z,6.50
2018-12-31T04:48:47.204Z,6.50
2018-12-31T04:51:29.322Z,6.60
2018-12-31T04:54:11.011Z,6.60
2018-12-31T04:56:52.735Z,6.50
2018-12-31T04:59:34.620Z,6.30
2018-12-31T05:02:16.610Z,5.90
2018-12-31T05:04:59.166Z,5.40
2018-12-31T05:07:41.326Z,5.00
2018-12-31T05:10:23.867Z,4.60
2018-12-31T05:13:05.882Z,4.50
2018-12-31T05:15:47.582Z,4.30
2018-12-31T05:18:30.108Z,4.10
2018-12-31T05:21:11.882Z,3.90
2018-12-31T05:23:53.855Z,3.70
2018-12-31T05:26:35.462Z,3.60
2018-12-31T05:29:17.514Z,3.70
2018-12-31T05:31:59.540Z,3.70
2018-12-31T05:34:41.192Z,3.60
2018-12-31T05:37:25.211Z,3.50
2018-12-31T05:40:07.046Z,3.30
2018-12-31T05:42:49.486Z,3.20
2018-12-31T05:45:29.935Z,3.10
2018-12-31T05:48:19.355Z,3.00
2018-12-31T05:51:01.441Z,2.90
2018-12-31T05:53:43.612Z,3.00
2018-12-31T05:56:25.395Z,3.00
2018-12-31T05:59:07.097Z,2.80
2018-12-31T06:01:49.092Z,2.80
2018-12-31T06:04:30.983Z,2.80
2018-12-31T06:07:12.925Z,2.80
2018-12-31T06:09:55.342Z,2.80
2018-12-31T06:12:37.019Z,2.90
2018-12-31T06:15:26.388Z,2.80
2018-12-31T06:18:15.815Z,2.80
2018-12-31T06:20:59.506Z,3.10
2018-12-31T06:23:41.326Z,3.50
2018-12-31T06:26:23.330Z,3.50
2018-12-31T06:29:05.331Z,3.30
2018-12-31T06:31:47.226Z,3.20
2018-12-31T06:34:27.784Z,3.10
2018-12-31T06:37:17.198Z,3.10
2018-12-31T06:40:00.454Z,3.00
2018-12-31T06:42:42.170Z,2.80
2018-12-31T06:45:24.083Z,2.70
2018-12-31T06:48:05.961Z,2.70
2018-12-31T06:50:47.962Z,2.70
2018-12-31T06:53:30.041Z,2.70
2018-12-31T06:56:11.890Z,2.60
2018-12-31T06:58:55.666Z,2.60
2018-12-31T07:01:37.391Z,2.50
2018-12-31T07:04:19.403Z,2.40
2018-12-31T07:07:01.858Z,2.30
2018-12-31T07:09:43.703Z,2.30
2018-12-31T07:12:26.354Z,2.20
2018-12-31T07:14:56.641Z,2.20
2018-12-31T07:17:47.431Z,2.20
2018-12-31T07:23:27.537Z,2.30
2018-12-31T07:26:11.636Z,2.30
2018-12-31T07:28:53.559Z,2.40
2018-12-31T07:31:35.611Z,2.50
2018-12-31T07:34:17.826Z,2.40
2018-12-31T07:36:59.977Z,2.40
2018-12-31T07:39:42.511Z,2.40
2018-12-31T07:42:24.370Z,2.40
2018-12-31T07:45:06.134Z,2.50
2018-12-31T07:47:47.850Z,2.70
2018-12-31T07:50:29.551Z,3.20
2018-12-31T07:53:11.686Z,3.40
2018-12-31T07:55:42.083Z,3.50
2018-12-31T07:58:32.986Z,3.50
2018-12-31T08:01:16.693Z,3.60
2018-12-31T08:03:58.866Z,3.60
2018-12-31T08:06:40.442Z,3.70
2018-12-31T08:09:22.651Z,3.80
2018-12-31T08:12:04.354Z,3.80
2018-12-31T08:14:46.478Z,4.00
2018-12-31T08:17:28.371Z,4.00
2018-12-31T08:19:58.733Z,3.90
2018-12-31T08:22:49.610Z,4.00
2018-12-31T08:25:31.874Z,4.10
2018-12-31T08:28:13.874Z,4.10
2018-12-31T08:30:56.355Z,4.10
2018-12-31T08:33:38.301Z,3.90
2018-12-31T08:36:21.788Z,4.10
2018-12-31T08:39:04.654Z,4.40
2018-12-31T08:41:46.282Z,4.40
2018-12-31T08:44:28.688Z,4.50
2018-12-31T08:47:10.947Z,4.40
2018-12-31T08:49:52.947Z,4.30
2018-12-31T08:52:35.000Z,4.10
2018-12-31T08:55:16.814Z,4.00
2018-12-31T08:57:58.435Z,4.00
2018-12-31T09:00:40.479Z,4.00
2018-12-31T09:03:22.298Z,3.90
2018-12-31T09:06:04.306Z,4.00
2018-12-31T09:08:46.696Z,4.10
2018-12-31T09:11:28.839Z,4.40
2018-12-31T09:14:10.839Z,4.50
2018-12-31T09:16:53.093Z,4.50
2018-12-31T09:19:35.586Z,4.40
2018-12-31T09:22:17.650Z,4.30
2018-12-31T09:24:59.490Z,4.30
2018-12-31T09:27:41.611Z,4.30
2018-12-31T09:30:23.920Z,4.30
2018-12-31T09:33:06.081Z,4.30
2018-12-31T09:35:47.768Z,4.30
2018-12-31T09:38:29.694Z,4.50
2018-12-31T09:41:11.606Z,4.50
2018-12-31T09:43:53.627Z,4.60
2018-12-31T09:46:35.706Z,4.70
2018-12-31T09:49:17.610Z,4.80
2018-12-31T09:51:59.790Z,4.80
2018-12-31T09:54:42.091Z,4.80
2018-12-31T09:57:23.966Z,4.90
2018-12-31T10:00:05.766Z,5.10
2018-12-31T10:02:48.108Z,5.20
2018-12-31T10:05:30.438Z,5.40
2018-12-31T10:08:12.710Z,5.50
2018-12-31T10:10:54.712Z,5.60
2018-12-31T10:13:36.851Z,5.70
2018-12-31T10:16:19.027Z,5.80
2018-12-31T10:19:00.653Z,5.90
2018-12-31T10:21:43.114Z,6.00
2018-12-31T10:24:25.071Z,6.10
2018-12-31T10:27:07.379Z,6.20
2018-12-31T10:29:49.531Z,6.20
2018-12-31T10:32:31.601Z,6.20
2018-12-31T10:35:13.520Z,6.30
2018-12-31T10:37:55.570Z,6.30
2018-12-31T10:40:37.784Z,6.30
2018-12-31T10:43:19.782Z,6.30
2018-12-31T10:46:01.799Z,6.30
2018-12-31T10:48:43.836Z,6.30
2018-12-31T10:51:25.957Z,6.30
2018-12-31T10:54:08.064Z,6.30
2018-12-31T10:56:50.082Z,6.30
2018-12-31T10:59:20.350Z,6.40
2018-12-31T11:02:11.138Z,6.60
2018-12-31T11:04:54.490Z,6.70
2018-12-31T11:07:36.627Z,6.80
2018-12-31T11:10:19.279Z,6.80
2018-12-31T11:13:02.247Z,6.80
2018-12-31T11:15:42.674Z,6.80
2018-12-31T11:18:31.998Z,6.80
2018-12-31T11:21:14.131Z,6.80
2018-12-31T11:24:03.530Z,6.90
2018-12-31T11:26:47.319Z,7.10
2018-12-31T11:29:29.626Z,7.30
2018-12-31T11:32:11.798Z,7.40
2018-12-31T11:34:53.915Z,7.50
2018-12-31T11:37:35.922Z,7.70
2018-12-31T11:40:17.607Z,7.90
2018-12-31T11:42:59.205Z,8.00
2018-12-31T11:45:41.205Z,8.10
2018-12-31T11:48:22.954Z,8.30
2018-12-31T11:51:04.723Z,8.30
2018-12-31T11:53:47.034Z,8.40
2018-12-31T11:56:28.731Z,8.50
2018-12-31T11:59:10.690Z,8.60
2018-12-31T12:01:52.370Z,8.70
2018-12-31T12:04:34.951Z,8.80
2018-12-31T12:07:17.131Z,8.80
2018-12-31T12:09:59.597Z,8.80
2018-12-31T12:12:41.638Z,8.90
2018-12-31T12:15:23.394Z,8.90
2018-12-31T12:18:05.237Z,8.90
2018-12-31T12:20:47.426Z,9.00
2018-12-31T12:23:27.919Z,9.10
2018-12-31T12:26:17.469Z,9.20
2018-12-31T12:29:00.887Z,9.20
2018-12-31T12:31:42.758Z,9.20
2018-12-31T12:34:24.809Z,9.20
2018-12-31T12:37:06.586Z,9.30
2018-12-31T12:39:48.276Z,9.40
2018-12-31T12:42:30.027Z,9.30
2018-12-31T12:45:12.578Z,9.30
2018-12-31T12:47:54.579Z,9.20
2018-12-31T12:50:37.122Z,9.10
2018-12-31T12:53:18.915Z,8.90
2018-12-31T12:56:00.849Z,8.80
2018-12-31T12:58:42.643Z,8.70
2018-12-31T13:01:24.822Z,8.70
2018-12-31T13:04:06.751Z,8.70
2018-12-31T13:06:48.426Z,8.70
2018-12-31T13:09:30.230Z,8.80
2018-12-31T13:12:12.690Z,8.80
2018-12-31T13:14:54.514Z,8.80
2018-12-31T13:17:36.911Z,8.80
2018-12-31T13:20:19.730Z,8.70
2018-12-31T13:23:01.832Z,8.60
2018-12-31T13:25:43.567Z,8.50
2018-12-31T13:28:25.259Z,8.40
2018-12-31T13:31:08.169Z,8.40
2018-12-31T13:33:48.898Z,8.40
2018-12-31T13:36:38.305Z,8.40
2018-12-31T13:39:21.731Z,8.30
2018-12-31T13:42:03.711Z,8.20
2018-12-31T13:44:47.082Z,8.20
2018-12-31T13:47:29.154Z,8.20
2018-12-31T13:50:11.330Z,8.20
2018-12-31T13:52:53.394Z,8.20
2018-12-31T13:55:35.550Z,8.20
2018-12-31T13:58:17.950Z,8.20
2018-12-31T14:00:59.638Z,8.10
2018-12-31T14:03:41.595Z,8.10
2018-12-31T14:06:23.604Z,8.20
2018-12-31T14:09:05.541Z,8.10
2018-12-31T14:11:47.395Z,8.10
2018-12-31T14:14:29.429Z,8.00
2018-12-31T14:17:11.258Z,7.90
2018-12-31T14:19:53.438Z,7.90
2018-12-31T14:22:35.703Z,7.70
2018-12-31T14:25:17.746Z,7.60
2018-12-31T14:28:00.230Z,7.50
2018-12-31T14:30:41.870Z,7.50
2018-12-31T14:33:23.669Z,7.50
2018-12-31T14:36:05.402Z,7.50
2018-12-31T14:38:47.409Z,7.30
2018-12-31T14:41:30.194Z,7.20
2018-12-31T14:44:12.146Z,7.10
2018-12-31T14:46:52.658Z,7.00
2018-12-31T14:49:34.894Z,7.10
2018-12-31T14:52:16.914Z,7.10
2018-12-31T14:54:57.610Z,7.10
2018-12-31T14:57:47.012Z,7.10
2018-12-31T15:00:30.806Z,7.10
2018-12-31T15:03:12.690Z,7.10
2018-12-31T15:05:54.605Z,7.20
2018-12-31T15:08:36.730Z,7.20
2018-12-31T15:11:19.050Z,7.20
2018-12-31T15:14:00.883Z,7.30
2018-12-31T15:16:42.882Z,7.20
2018-12-31T15:19:24.795Z,7.00
2018-12-31T15:22:07.234Z,6.90
2018-12-31T15:24:49.026Z,6.80
2018-12-31T15:27:30.998Z,6.70
2018-12-31T15:30:13.434Z,6.60
2018-12-31T15:32:55.734Z,6.50
2018-12-31T15:35:38.352Z,6.50
2018-12-31T15:38:20.470Z,6.40
2018-12-31T15:41:03.519Z,6.30
2018-12-31T15:43:45.190Z,6.20
2018-12-31T15:46:27.674Z,6.10
2018-12-31T15:49:09.527Z,6.00
2018-12-31T15:51:52.010Z,5.90
2018-12-31T15:54:34.218Z,5.80
2018-12-31T15:57:16.311Z,5.70
2018-12-31T15:59:58.335Z,5.60
2018-12-31T16:02:40.586Z,5.50
2018-12-31T16:05:22.370Z,5.40
2018-12-31T16:08:04.174Z,5.30
2018-12-31T16:10:46.643Z,5.20
2018-12-31T16:13:29.078Z,5.10
2018-12-31T16:16:10.931Z,5.10
2018-12-31T16:18:53.329Z,5.00
2018-12-31T16:21:35.683Z,4.90
2018-12-31T16:24:18.606Z,4.90
2018-12-31T16:27:00.450Z,4.80
2018-12-31T16:29:42.536Z,4.80
2018-12-31T16:32:25.161Z,4.70
2018-12-31T16:35:07.761Z,4.70
2018-12-31T16:37:49.997Z,4.70
2018-12-31T16:40:32.098Z,4.80
2018-12-31T16:43:14.602Z,5.10
2018-12-31T16:45:56.510Z,5.20
2018-12-31T16:48:38.735Z,5.30
2018-12-31T16:51:20.783Z,5.20
2018-12-31T16:54:02.758Z,5.30
2018-12-31T16:56:45.266Z,5.50
2018-12-31T16:59:27.053Z,5.30
2018-12-31T17:02:09.043Z,5.10
2018-12-31T17:04:51.012Z,4.90
2018-12-31T17:07:32.935Z,4.80
2018-12-31T17:10:15.118Z,4.90
2018-12-31T17:12:56.938Z,4.80
2018-12-31T17:15:38.755Z,4.60
2018-12-31T17:18:20.462Z,4.60
2018-12-31T17:21:03.016Z,4.50
2018-12-31T17:23:45.346Z,4.40
2018-12-31T17:26:27.574Z,4.30
2018-12-31T17:29:09.594Z,4.20
2018-12-31T17:31:51.949Z,4.20
2018-12-31T17:34:34.758Z,4.00
2018-12-31T17:37:17.206Z,3.90
2018-12-31T17:39:59.670Z,4.00
2018-12-31T17:42:41.814Z,4.00
2018-12-31T17:45:23.827Z,3.90
2018-12-31T17:48:05.906Z,3.90
2018-12-31T17:50:48.399Z,3.80
2018-12-31T17:53:30.499Z,3.80
2018-12-31T17:56:12.589Z,3.80
2018-12-31T17:58:54.538Z,3.80
2018-12-31T18:01:36.399Z,3.80
2018-12-31T18:04:18.743Z,3.80
2018-12-31T18:07:01.206Z,3.80
2018-12-31T18:09:44.030Z,3.80
2018-12-31T18:12:26.354Z,3.80
2018-12-31T18:15:09.111Z,3.90
2018-12-31T18:17:51.550Z,3.90
2018-12-31T18:20:33.470Z,4.20
2018-12-31T18:23:15.222Z,4.50
2018-12-31T18:25:57.142Z,4.40
2018-12-31T18:28:39.515Z,4.20
2018-12-31T18:31:21.513Z,4.20
2018-12-31T18:34:04.022Z,4.20
2018-12-31T18:36:46.074Z,4.20
2018-12-31T18:39:28.098Z,4.40
2018-12-31T18:42:10.876Z,4.30
2018-12-31T18:44:53.090Z,4.20
2018-12-31T18:47:35.148Z,4.00
2018-12-31T18:50:16.774Z,4.20
2018-12-31T18:52:58.762Z,4.40
2018-12-31T18:55:41.097Z,4.40
2018-12-31T18:58:24.200Z,4.50
2018-12-31T19:01:06.371Z,4.60
2018-12-31T19:03:48.562Z,4.30
2018-12-31T19:06:31.226Z,4.20
2018-12-31T19:09:13.827Z,4.00
2018-12-31T19:11:55.734Z,3.80
2018-12-31T19:14:37.853Z,3.70
2018-12-31T19:17:20.376Z,3.60
2018-12-31T19:20:02.134Z,3.60
2018-12-31T19:22:44.830Z,3.80
2018-12-31T19:25:26.890Z,3.70
2018-12-31T19:28:09.378Z,3.80
2018-12-31T19:30:52.009Z,3.60
2018-12-31T19:33:33.863Z,3.50
2018-12-31T19:36:15.712Z,3.40
2018-12-31T19:38:57.877Z,3.30
2018-12-31T19:41:39.758Z,3.30
2018-12-31T19:44:21.995Z,3.20
2018-12-31T19:47:03.904Z,3.30
2018-12-31T19:49:45.706Z,3.20
2018-12-31T19:52:27.604Z,3.10
2018-12-31T19:55:09.705Z,3.10
2018-12-31T19:57:51.654Z,3.00
2018-12-31T20:00:34.247Z,3.00
2018-12-31T20:03:16.635Z,3.00
2018-12-31T20:05:59.339Z,2.90
2018-12-31T20:08:41.972Z,2.90
2018-12-31T20:11:24.135Z,2.80
2018-12-31T20:14:06.307Z,2.80
2018-12-31T20:16:48.233Z,2.80
2018-12-31T20:19:30.376Z,2.70
2018-12-31T20:22:12.358Z,2.70
2018-12-31T20:24:54.127Z,2.60
2018-12-31T20:27:36.002Z,2.50
2018-12-31T20:30:18.210Z,2.50
2018-12-31T20:33:00.279Z,2.60
2018-12-31T20:35:42.194Z,2.50
2018-12-31T20:38:24.062Z,2.40
2018-12-31T20:41:06.454Z,2.40
2018-12-31T20:43:48.450Z,2.40
2018-12-31T20:46:30.346Z,2.20
2018-12-31T20:49:12.185Z,2.30
2018-12-31T20:51:54.163Z,2.40
2018-12-31T20:54:36.107Z,2.40
2018-12-31T20:57:18.939Z,2.40
2018-12-31T21:00:01.006Z,2.30
2018-12-31T21:02:42.825Z,2.30
2018-12-31T21:05:24.990Z,2.20
2018-12-31T21:08:05.478Z,2.20
2018-12-31T21:13:55.524Z,2.10
2018-12-31T21:16:39.234Z,2.00
2018-12-31T21:19:21.231Z,2.00
2018-12-31T21:22:04.211Z,2.00
2018-12-31T21:24:45.935Z,2.00
2018-12-31T21:27:27.927Z,2.00
2018-12-31T21:30:10.343Z,2.10
2018-12-31T21:32:52.911Z,2.00
2018-12-31T21:35:35.011Z,2.00
2018-12-31T21:38:17.117Z,2.10
2018-12-31T21:40:59.262Z,2.00
2018-12-31T21:43:41.921Z,2.10
2018-12-31T21:46:23.795Z,2.00
2018-12-31T21:49:05.569Z,2.10
2018-12-31T21:51:47.626Z,2.10
2018-12-31T21:54:29.902Z,2.20
2018-12-31T21:57:11.962Z,2.30
2018-12-31T21:59:54.026Z,2.30
2018-12-31T22:02:35.643Z,2.30
2018-12-31T22:05:17.470Z,2.40
2018-12-31T22:07:59.621Z,2.40
2018-12-31T22:10:41.446Z,2.40
2018-12-31T22:13:23.771Z,2.40
2018-12-31T22:16:07.319Z,2.50
2018-12-31T22:18:49.030Z,2.40
2018-12-31T22:21:31.222Z,2.40
2018-12-31T22:24:12.810Z,2.40
2018-12-31T22:26:55.019Z,2.40
2018-12-31T22:29:37.270Z,2.30
2018-12-31T22:32:19.542Z,2.20
2018-12-31T22:35:01.600Z,2.10
2018-12-31T22:37:43.809Z,2.00
2018-12-31T22:40:26.260Z,2.00
2018-12-31T22:43:09.499Z,1.90
2018-12-31T22:45:51.466Z,1.90
2018-12-31T22:48:33.556Z,1.90
2018-12-31T22:51:15.543Z,1.90
2018-12-31T22:53:57.366Z,2.00
2018-12-31T22:56:39.283Z,2.10
2018-12-31T22:59:21.234Z,2.10
2018-12-31T23:02:03.390Z,2.20
2018-12-31T23:04:45.275Z,2.20
2018-12-31T23:07:27.354Z,2.30
2018-12-31T23:10:09.569Z,2.30
2018-12-31T23:12:51.930Z,2.30
2018-12-31T23:15:33.497Z,2.30
2018-12-31T23:18:22.914Z,2.30
2018-12-31T23:21:06.796Z,2.40
2018-12-31T23:23:48.533Z,2.40
2018-12-31T23:26:30.531Z,2.40
2018-12-31T23:29:12.578Z,2.40
2018-12-31T23:31:54.516Z,2.40
2018-12-31T23:34:36.450Z,2.40
2018-12-31T23:37:18.369Z,2.30
2018-12-31T23:40:00.009Z,2.30
2018-12-31T23:42:41.936Z,2.30
2018-12-31T23:45:23.754Z,2.40
2018-12-31T23:48:06.594Z,2.60
2018-12-31T23:50:48.914Z,2.60
2018-12-31T23:53:30.842Z,2.60
2018-12-31T23:56:13.266Z,2.60
2018-12-31T23:58:54.976Z,2.60
